createdAt,value
2018-12-05T00:00:28.938Z,97000.41
2018-12-05T00:02:59.568Z,96996.14
2018-12-05T00:05:29.064Z,97000.41
2018-12-05T00:08:00.522Z,96997.73
2018-12-05T00:10:29.884Z,97001.20
2018-12-05T00:13:01.513Z,97003.38
2018-12-05T00:15:32.422Z,97003.84
2018-12-05T00:18:02.457Z,97006.00
2018-12-05T00:20:32.370Z,97001.80
2018-12-05T00:23:04.802Z,97008.95
2018-12-05T00:25:34.870Z,97009.89
2018-12-05T00:28:05.997Z,97013.33
2018-12-05T00:30:35.521Z,97012.52
2018-12-05T00:33:06.551Z,97012.64
2018-12-05T00:35:37.617Z,97012.26
2018-12-05T00:38:08.281Z,97013.02
2018-12-05T00:40:38.685Z,97015.11
2018-12-05T00:43:09.597Z,97010.11
2018-12-05T00:45:40.667Z,97014.48
2018-12-05T00:48:11.588Z,97013.48
2018-12-05T00:50:42.330Z,97017.89
2018-12-05T00:53:12.536Z,97024.84
2018-12-05T00:55:43.202Z,97020.25
2018-12-05T00:58:13.738Z,97026.69
2018-12-05T01:00:44.269Z,97025.38
2018-12-05T01:03:14.661Z,97028.94
2018-12-05T01:05:45.753Z,97028.14
2018-12-05T01:08:15.882Z,97019.81
2018-12-05T01:10:46.825Z,97026.04
2018-12-05T01:13:17.296Z,97035.36
2018-12-05T01:15:48.369Z,97035.41
2018-12-05T01:18:18.497Z,97031.75
2018-12-05T01:20:53.044Z,97041.14
2018-12-05T01:23:22.689Z,97041.61
2018-12-05T01:25:52.748Z,97028.31
2018-12-05T01:28:23.816Z,97031.50
2018-12-05T01:30:54.756Z,97030.60
2018-12-05T01:33:24.833Z,97028.27
2018-12-05T01:35:55.824Z,97030.02
2018-12-05T01:38:26.864Z,97022.30
2018-12-05T01:40:56.775Z,97017.46
2018-12-05T01:43:31.837Z,97020.56
2018-12-05T01:46:01.869Z,97031.05
2018-12-05T01:48:31.689Z,97026.46
2018-12-05T01:51:03.969Z,97027.45
2018-12-05T01:53:35.082Z,97030.92
2018-12-05T01:56:05.231Z,97028.39
2018-12-05T01:58:35.924Z,97031.84
2018-12-05T02:01:09.605Z,97026.48
2018-12-05T02:03:45.849Z,97028.87
2018-12-05T02:06:16.792Z,97030.41
2018-12-05T02:08:47.002Z,97032.43
2018-12-05T02:11:17.799Z,97031.95
2018-12-05T02:13:48.171Z,97039.06
2018-12-05T02:16:18.775Z,97037.75
2018-12-05T02:18:49.348Z,97035.27
2018-12-05T02:21:20.397Z,97038.75
2018-12-05T02:23:50.542Z,97044.73
2018-12-05T02:26:21.032Z,97051.33
2018-12-05T02:28:51.780Z,97044.86
2018-12-05T02:31:22.146Z,97051.73
2018-12-05T02:33:53.147Z,97051.52
2018-12-05T02:36:23.599Z,97050.39
2018-12-05T02:38:54.097Z,97049.97
2018-12-05T02:41:25.312Z,97055.20
2018-12-05T02:43:55.159Z,97051.37
2018-12-05T02:46:27.162Z,97048.58
2018-12-05T02:48:57.128Z,97051.23
2018-12-05T02:51:27.715Z,97052.59
2018-12-05T02:53:58.218Z,97050.53
2018-12-05T02:56:29.688Z,97061.14
2018-12-05T02:59:00.301Z,97056.09
2018-12-05T03:01:30.601Z,97059.17
2018-12-05T03:04:05.153Z,97062.50
2018-12-05T03:06:35.145Z,97068.81
2018-12-05T03:09:07.864Z,97079.47
2018-12-05T03:11:40.332Z,97083.38
2018-12-05T03:14:10.217Z,97088.00
2018-12-05T03:16:41.664Z,97098.61
2018-12-05T03:19:11.426Z,97098.16
2018-12-05T03:21:42.186Z,97095.88
2018-12-05T03:24:18.248Z,97098.83
2018-12-05T03:26:49.350Z,97093.53
2018-12-05T03:29:20.410Z,97090.63
2018-12-05T03:31:50.336Z,97094.12
2018-12-05T03:34:21.369Z,97099.13
2018-12-05T03:36:51.590Z,97108.59
2018-12-05T03:39:22.400Z,97110.19
2018-12-05T03:41:53.469Z,97108.29
2018-12-05T03:44:23.709Z,97094.80
2018-12-05T03:46:55.414Z,97094.16
2018-12-05T03:49:27.309Z,97096.94
2018-12-05T03:52:07.310Z,97095.55
2018-12-05T03:54:38.458Z,97105.22
2018-12-05T03:57:10.714Z,97100.30
2018-12-05T03:59:42.375Z,97099.42
2018-12-05T04:02:14.606Z,97101.94
2018-12-05T04:04:44.576Z,97104.08
2018-12-05T04:07:15.571Z,97102.31
2018-12-05T04:09:51.597Z,97103.38
2018-12-05T04:12:40.709Z,97106.70
2018-12-05T04:15:28.038Z,97102.11
2018-12-05T04:18:20.041Z,97104.89
2018-12-05T04:20:55.198Z,97097.23
2018-12-05T04:23:35.653Z,97094.80
2018-12-05T04:26:10.958Z,97087.98
2018-12-05T04:28:54.233Z,97087.89
2018-12-05T04:34:39.114Z,97096.27
2018-12-05T04:37:26.845Z,97094.50
2018-12-05T04:40:13.652Z,97091.42
2018-12-05T04:43:01.348Z,97098.53
2018-12-05T04:45:46.526Z,97096.30
2018-12-05T04:48:33.089Z,97097.19
2018-12-05T04:51:13.104Z,97102.86
2018-12-05T04:53:48.885Z,97112.37
2018-12-05T04:56:19.065Z,97117.07
2018-12-05T04:58:49.726Z,97122.89
2018-12-05T05:01:19.601Z,97130.70
2018-12-05T05:03:50.807Z,97125.33
2018-12-05T05:06:21.704Z,97126.92
2018-12-05T05:08:52.679Z,97128.06
2018-12-05T05:11:22.803Z,97136.42
2018-12-05T05:13:53.765Z,97146.95
2018-12-05T05:16:27.693Z,97141.47
2018-12-05T05:19:02.892Z,97151.78
2018-12-05T05:21:32.886Z,97148.97
2018-12-05T05:24:02.823Z,97152.74
2018-12-05T05:26:38.736Z,97159.14
2018-12-05T05:29:10.893Z,97162.12
2018-12-05T05:31:51.801Z,97165.14
2018-12-05T05:34:21.126Z,97163.55
2018-12-05T05:36:50.819Z,97165.95
2018-12-05T05:39:24.648Z,97166.33
2018-12-05T05:42:01.827Z,97160.44
2018-12-05T05:44:35.967Z,97167.36
2018-12-05T05:47:05.969Z,97169.21
2018-12-05T05:49:37.094Z,97168.52
2018-12-05T05:52:07.012Z,97166.96
2018-12-05T05:54:37.892Z,97174.18
2018-12-05T05:57:10.879Z,97179.64
2018-12-05T06:02:42.176Z,97185.83
2018-12-05T06:05:13.987Z,97192.97
2018-12-05T06:07:43.912Z,97197.98
2018-12-05T06:10:20.790Z,97198.65
2018-12-05T06:12:54.925Z,97204.08
2018-12-05T06:15:29.150Z,97211.92
2018-12-05T06:17:59.037Z,97214.05
2018-12-05T06:20:29.458Z,97213.67
2018-12-05T06:23:04.118Z,97210.87
2018-12-05T06:25:36.328Z,97216.19
2018-12-05T06:28:08.043Z,97215.77
2018-12-05T06:30:39.191Z,97213.25
2018-12-05T06:33:09.605Z,97215.39
2018-12-05T06:35:39.244Z,97213.22
2018-12-05T06:38:10.187Z,97215.31
2018-12-05T06:40:41.134Z,97214.44
2018-12-05T06:43:13.873Z,97208.48
2018-12-05T06:45:50.577Z,97209.28
2018-12-05T06:48:21.350Z,97220.48
2018-12-05T06:50:52.971Z,97217.13
2018-12-05T06:53:22.347Z,97222.90
2018-12-05T06:55:53.237Z,97232.11
2018-12-05T06:58:28.012Z,97237.19
2018-12-05T07:01:00.529Z,97244.34
2018-12-05T07:03:29.894Z,97246.83
2018-12-05T07:06:02.153Z,97249.23
2018-12-05T07:08:38.333Z,97250.04
2018-12-05T07:11:09.500Z,97258.38
2018-12-05T07:13:40.343Z,97262.50
2018-12-05T07:16:10.363Z,97256.28
2018-12-05T07:18:41.579Z,97262.29
2018-12-05T07:21:12.558Z,97265.27
2018-12-05T07:23:42.477Z,97263.97
2018-12-05T07:26:13.397Z,97266.48
2018-12-05T07:28:44.351Z,97263.16
2018-12-05T07:31:15.569Z,97261.48
2018-12-05T07:33:45.759Z,97263.93
2018-12-05T07:36:16.402Z,97262.09
2018-12-05T07:38:47.514Z,97264.01
2018-12-05T07:41:18.893Z,97259.27
2018-12-05T07:43:48.504Z,97255.36
2018-12-05T07:46:19.413Z,97259.33
2018-12-05T07:48:49.525Z,97256.94
2018-12-05T07:51:20.469Z,97262.88
2018-12-05T07:53:50.552Z,97263.76
2018-12-05T07:56:21.444Z,97265.39
2018-12-05T07:58:54.552Z,97268.19
2018-12-05T08:01:25.586Z,97268.40
2018-12-05T08:03:56.521Z,97269.84
2018-12-05T08:06:29.089Z,97257.32
2018-12-05T08:09:01.124Z,97261.78
2018-12-05T08:11:32.717Z,97261.61
2018-12-05T08:14:06.634Z,97269.28
2018-12-05T08:16:38.494Z,97269.32
2018-12-05T08:19:11.767Z,97269.98
2018-12-05T08:21:43.539Z,97265.74
2018-12-05T08:24:17.626Z,97265.72
2018-12-05T08:26:50.545Z,97268.06
2018-12-05T08:29:21.821Z,97275.54
2018-12-05T08:31:51.163Z,97283.54
2018-12-05T08:34:20.895Z,97278.29
2018-12-05T08:36:51.590Z,97276.67
2018-12-05T08:39:21.606Z,97272.26
2018-12-05T08:41:52.608Z,97266.08
2018-12-05T08:44:29.246Z,97259.39
2018-12-05T08:46:59.624Z,97261.23
2018-12-05T08:49:29.594Z,97262.71
2018-12-05T08:52:04.453Z,97263.16
2018-12-05T08:54:35.298Z,97270.25
2018-12-05T08:57:04.749Z,97274.98
2018-12-05T08:59:35.873Z,97273.28
2018-12-05T09:02:07.444Z,97277.91
2018-12-05T09:04:37.791Z,97279.06
2018-12-05T09:07:07.874Z,97286.69
2018-12-05T09:09:38.596Z,97288.98
2018-12-05T09:12:14.057Z,97284.45
2018-12-05T09:14:44.175Z,97287.94
2018-12-05T09:17:13.978Z,97275.31
2018-12-05T09:19:43.830Z,97285.58
2018-12-05T09:22:18.849Z,97282.52
2018-12-05T09:24:48.975Z,97283.14
2018-12-05T09:27:19.905Z,97279.95
2018-12-05T09:29:49.264Z,97274.61
2018-12-05T09:32:20.983Z,97285.98
2018-12-05T09:34:52.061Z,97283.32
2018-12-05T09:37:23.169Z,97284.16
2018-12-05T09:39:54.937Z,97280.41
2018-12-05T09:42:24.309Z,97278.20
2018-12-05T09:44:55.113Z,97277.66
2018-12-05T09:47:26.242Z,97277.16
2018-12-05T09:49:57.293Z,97276.59
2018-12-05T09:52:27.580Z,97265.33
2018-12-05T09:54:57.002Z,97264.20
2018-12-05T09:57:28.017Z,97264.09
2018-12-05T09:59:59.015Z,97256.38
2018-12-05T10:02:29.312Z,97254.09
2018-12-05T10:05:00.421Z,97258.28
2018-12-05T10:07:29.873Z,97253.59
2018-12-05T10:10:04.673Z,97247.31
2018-12-05T10:12:36.210Z,97243.78
2018-12-05T10:15:07.275Z,97245.70
2018-12-05T10:17:39.287Z,97240.89
2018-12-05T10:20:10.233Z,97244.42
2018-12-05T10:22:42.182Z,97239.63
2018-12-05T10:25:12.394Z,97241.64
2018-12-05T10:27:42.311Z,97245.70
2018-12-05T10:30:13.447Z,97241.05
2018-12-05T10:32:44.321Z,97235.41
2018-12-05T10:35:15.293Z,97236.02
2018-12-05T10:37:45.401Z,97238.12
2018-12-05T10:40:16.323Z,97212.76
2018-12-05T10:42:47.564Z,97228.87
2018-12-05T10:45:18.373Z,97221.11
2018-12-05T10:47:49.952Z,97214.73
2018-12-05T10:50:22.208Z,97208.87
2018-12-05T10:52:53.605Z,97204.25
2018-12-05T10:55:23.257Z,97199.78
2018-12-05T10:57:54.535Z,97199.41
2018-12-05T11:00:30.513Z,97194.21
2018-12-05T11:03:07.107Z,97189.13
2018-12-05T11:05:50.166Z,97192.30
2018-12-05T11:08:29.894Z,97192.09
2018-12-05T11:11:05.632Z,97194.33
2018-12-05T11:13:41.778Z,97188.11
2018-12-05T11:16:16.781Z,97183.57
2018-12-05T11:18:53.428Z,97183.34
2018-12-05T11:21:29.455Z,97183.57
2018-12-05T11:24:10.862Z,97177.95
2018-12-05T11:26:40.762Z,97173.05
2018-12-05T11:29:11.503Z,97171.55
2018-12-05T11:31:43.673Z,97168.91
2018-12-05T11:34:13.450Z,97159.30
2018-12-05T11:36:46.382Z,97161.69
2018-12-05T11:39:17.383Z,97155.81
2018-12-05T11:41:54.538Z,97152.72
2018-12-05T11:44:25.617Z,97156.09
2018-12-05T11:46:56.578Z,97152.63
2018-12-05T11:49:26.582Z,97155.64
2018-12-05T11:51:57.459Z,97159.42
2018-12-05T11:54:28.674Z,97151.59
2018-12-05T11:56:58.570Z,97149.75
2018-12-05T11:59:29.581Z,97144.05
2018-12-05T12:01:59.663Z,97145.00
2018-12-05T12:04:29.719Z,97145.09
2018-12-05T12:07:01.534Z,97141.81
2018-12-05T12:09:36.427Z,97149.19
2018-12-05T12:12:19.666Z,97145.88
2018-12-05T12:14:50.877Z,97144.98
2018-12-05T12:17:21.973Z,97139.84
2018-12-05T12:19:52.844Z,97141.92
2018-12-05T12:22:22.765Z,97139.97
2018-12-05T12:24:53.683Z,97131.50
2018-12-05T12:27:23.721Z,97130.86
2018-12-05T12:29:54.764Z,97134.67
2018-12-05T12:32:26.024Z,97136.13
2018-12-05T12:34:56.889Z,97134.25
2018-12-05T12:37:27.913Z,97136.16
2018-12-05T12:39:57.758Z,97133.59
2018-12-05T12:42:28.874Z,97131.06
2018-12-05T12:44:58.792Z,97133.38
2018-12-05T12:47:29.750Z,97128.07
2018-12-05T12:50:00.845Z,97129.27
2018-12-05T12:52:30.190Z,97132.63
2018-12-05T12:55:00.803Z,97142.95
2018-12-05T12:57:30.265Z,97134.20
2018-12-05T13:00:02.199Z,97136.38
2018-12-05T13:02:34.177Z,97130.70
2018-12-05T13:05:05.474Z,97127.72
2018-12-05T13:07:35.829Z,97133.77
2018-12-05T13:10:06.482Z,97128.63
2018-12-05T13:12:37.052Z,97122.88
2018-12-05T13:15:09.490Z,97125.16
2018-12-05T13:17:40.382Z,97122.83
2018-12-05T13:20:12.060Z,97124.91
2018-12-05T13:22:44.006Z,97122.04
2018-12-05T13:25:18.465Z,97120.06
2018-12-05T13:27:49.657Z,97119.79
2018-12-05T13:30:22.965Z,97118.49
2018-12-05T13:32:53.901Z,97120.92
2018-12-05T13:35:28.165Z,97116.52
2018-12-05T13:37:58.061Z,97117.64
2018-12-05T13:40:29.211Z,97110.93
2018-12-05T13:42:59.170Z,97113.75
2018-12-05T13:45:33.159Z,97113.09
2018-12-05T13:48:03.070Z,97116.89
2018-12-05T13:50:33.204Z,97113.37
2018-12-05T13:53:05.227Z,97113.11
2018-12-05T13:55:36.181Z,97109.84
2018-12-05T13:58:06.270Z,97114.14
2018-12-05T14:00:37.165Z,97115.83
2018-12-05T14:03:08.438Z,97115.61
2018-12-05T14:05:39.160Z,97111.98
2018-12-05T14:08:12.021Z,97114.61
2018-12-05T14:10:42.088Z,97113.21
2018-12-05T14:13:13.383Z,97113.20
2018-12-05T14:18:38.341Z,97108.40
2018-12-05T14:21:09.415Z,97105.99
2018-12-05T14:23:39.314Z,97103.83
2018-12-05T14:26:10.257Z,97100.02
2018-12-05T14:28:43.029Z,97100.60
2018-12-05T14:31:14.169Z,97100.03
2018-12-05T14:33:53.323Z,97098.50
2018-12-05T14:36:24.928Z,97097.98
2018-12-05T14:38:58.188Z,97102.70
2018-12-05T14:41:33.353Z,97095.58
2018-12-05T14:44:05.273Z,97100.27
2018-12-05T14:46:37.173Z,97100.52
2018-12-05T14:49:12.414Z,97102.53
2018-12-05T14:51:42.524Z,97099.70
2018-12-05T14:54:13.898Z,97096.67
2018-12-05T14:59:11.452Z,97092.89
2018-12-05T15:01:44.468Z,97102.55
2018-12-05T15:04:19.150Z,97101.87
2018-12-05T15:06:50.566Z,97099.05
2018-12-05T15:09:20.612Z,97099.72
2018-12-05T15:11:51.499Z,97100.70
2018-12-05T15:14:25.345Z,97099.56
2018-12-05T15:16:55.589Z,97102.53
2018-12-05T15:19:26.513Z,97095.47
2018-12-05T15:22:03.460Z,97098.62
2018-12-05T15:24:33.606Z,97092.23
2018-12-05T15:27:05.047Z,97094.52
2018-12-05T15:29:36.587Z,97095.92
2018-12-05T15:32:08.460Z,97095.38
2018-12-05T15:34:39.303Z,97097.39
2018-12-05T15:37:12.592Z,97087.23
2018-12-05T15:39:46.467Z,97091.89
2018-12-05T15:42:16.666Z,97092.25
2018-12-05T15:44:47.728Z,97091.66
2018-12-05T15:47:17.660Z,97087.36
2018-12-05T15:49:47.657Z,97088.22
2018-12-05T15:52:19.665Z,97081.33
2018-12-05T15:54:49.653Z,97074.09
2018-12-05T15:57:19.776Z,97077.63
2018-12-05T15:59:50.617Z,97071.95
2018-12-05T16:02:21.697Z,97069.07
2018-12-05T16:04:51.601Z,97077.38
2018-12-05T16:07:22.703Z,97075.14
2018-12-05T16:09:54.769Z,97072.17
2018-12-05T16:12:26.661Z,97072.23
2018-12-05T16:15:00.418Z,97070.18
2018-12-05T16:17:30.122Z,97066.25
2018-12-05T16:20:05.428Z,97066.22
2018-12-05T16:22:35.213Z,97067.13
2018-12-05T16:25:06.285Z,97064.75
2018-12-05T16:27:36.605Z,97068.88
2018-12-05T16:30:08.241Z,97073.56
2018-12-05T16:32:37.917Z,97070.14
2018-12-05T16:35:09.042Z,97059.72
2018-12-05T16:37:39.423Z,97065.41
2018-12-05T16:40:09.825Z,97068.27
2018-12-05T16:42:41.392Z,97068.02
2018-12-05T16:45:11.648Z,97062.58
2018-12-05T16:47:42.216Z,97055.95
2018-12-05T16:50:12.645Z,97063.53
2018-12-05T16:52:43.260Z,97059.41
2018-12-05T16:55:13.556Z,97058.04
2018-12-05T16:57:42.906Z,97060.56
2018-12-05T17:00:14.047Z,97064.14
2018-12-05T17:02:45.142Z,97066.77
2018-12-05T17:05:15.920Z,97063.07
2018-12-05T17:07:46.032Z,97064.02
2018-12-05T17:10:16.801Z,97058.97
2018-12-05T17:12:47.518Z,97060.64
2018-12-05T17:15:18.154Z,97062.02
2018-12-05T17:17:48.082Z,97054.13
2018-12-05T17:20:18.981Z,97059.28
2018-12-05T17:22:49.070Z,97056.53
2018-12-05T17:25:20.076Z,97050.27
2018-12-05T17:27:50.971Z,97062.06
2018-12-05T17:30:21.005Z,97059.36
2018-12-05T17:32:51.921Z,97054.67
2018-12-05T17:35:22.181Z,97056.45
2018-12-05T17:37:53.002Z,97058.28
2018-12-05T17:40:24.173Z,97056.88
2018-12-05T17:42:56.826Z,97056.61
2018-12-05T17:45:28.125Z,97053.34
2018-12-05T17:47:59.245Z,97044.06
2018-12-05T17:50:30.083Z,97048.17
2018-12-05T17:53:00.292Z,97043.23
2018-12-05T17:55:30.165Z,97051.37
2018-12-05T17:57:59.602Z,97050.30
2018-12-05T18:00:32.990Z,97047.72
2018-12-05T18:03:06.133Z,97025.04
2018-12-05T18:05:37.585Z,97032.20
2018-12-05T18:08:07.376Z,97029.44
2018-12-05T18:10:38.333Z,97028.17
2018-12-05T18:13:08.615Z,97024.16
2018-12-05T18:15:42.942Z,97017.66
2018-12-05T18:18:13.298Z,97018.97
2018-12-05T18:20:43.208Z,97012.85
2018-12-05T18:23:14.289Z,97012.23
2018-12-05T18:25:44.397Z,97013.50
2018-12-05T18:28:18.181Z,97014.63
2018-12-05T18:30:49.115Z,97010.19
2018-12-05T18:33:19.282Z,97006.78
2018-12-05T18:35:51.578Z,96999.95
2018-12-05T18:38:23.480Z,97000.70
2018-12-05T18:40:57.302Z,96995.42
2018-12-05T18:43:30.624Z,97001.03
2018-12-05T18:46:01.511Z,96999.53
2018-12-05T18:48:30.881Z,96996.29
2018-12-05T18:51:00.559Z,96997.56
2018-12-05T18:53:30.069Z,96997.23
2018-12-05T18:56:04.471Z,96991.48
2018-12-05T18:58:33.796Z,96992.31
2018-12-05T19:01:04.812Z,96991.58
2018-12-05T19:03:34.505Z,96991.66
2018-12-05T19:06:05.409Z,96986.19
2018-12-05T19:08:35.536Z,96987.58
2018-12-05T19:11:07.735Z,96981.70
2018-12-05T19:13:44.795Z,96981.48
2018-12-05T19:16:16.657Z,96975.67
2018-12-05T19:18:47.656Z,96968.16
2018-12-05T19:21:20.311Z,96964.38
2018-12-05T19:23:54.453Z,96968.16
2018-12-05T19:26:24.732Z,96964.51
2018-12-05T19:28:55.632Z,96958.11
2018-12-05T19:31:26.536Z,96957.27
2018-12-05T19:33:59.665Z,96945.16
2018-12-05T19:36:30.045Z,96951.98
2018-12-05T19:39:02.145Z,96945.82
2018-12-05T19:41:33.604Z,96940.95
2018-12-05T19:44:03.165Z,96933.30
2018-12-05T19:46:34.736Z,96944.13
2018-12-05T19:49:06.811Z,96939.18
2018-12-05T19:51:36.761Z,96934.64
2018-12-05T19:54:07.843Z,96927.38
2018-12-05T19:56:39.908Z,96923.96
2018-12-05T19:59:10.020Z,96921.95
2018-12-05T20:01:40.987Z,96921.16
2018-12-05T20:04:10.677Z,96918.63
2018-12-05T20:06:47.881Z,96923.34
2018-12-05T20:09:21.845Z,96908.86
2018-12-05T20:11:52.924Z,96908.91
2018-12-05T20:14:28.026Z,96905.80
2018-12-05T20:16:59.928Z,96903.47
2018-12-05T20:19:33.829Z,96903.22
2018-12-05T20:22:03.853Z,96903.89
2018-12-05T20:24:34.305Z,96893.00
2018-12-05T20:27:05.292Z,96869.50
2018-12-05T20:29:37.048Z,96887.96
2018-12-05T20:32:06.672Z,96888.76
2018-12-05T20:34:36.246Z,96881.49
2018-12-05T20:37:07.348Z,96881.02
2018-12-05T20:39:37.137Z,96879.67
2018-12-05T20:42:07.990Z,96871.02
2018-12-05T20:44:42.151Z,96867.71
2018-12-05T20:47:13.056Z,96859.69
2018-12-05T20:49:43.153Z,96857.39
2018-12-05T20:52:12.632Z,96853.37
2018-12-05T20:54:43.248Z,96848.59
2018-12-05T20:57:15.077Z,96841.73
2018-12-05T20:59:46.100Z,96841.88
2018-12-05T21:02:17.659Z,96842.97
2018-12-05T21:04:47.918Z,96836.17
2018-12-05T21:07:18.048Z,96835.70
2018-12-05T21:09:49.174Z,96830.66
2018-12-05T21:12:20.097Z,96836.38
2018-12-05T21:14:50.722Z,96829.19
2018-12-05T21:17:21.076Z,96832.59
2018-12-05T21:19:55.142Z,96817.61
2018-12-05T21:22:27.083Z,96822.39
2018-12-05T21:24:57.151Z,96818.16
2018-12-05T21:27:27.053Z,96816.06
2018-12-05T21:30:05.678Z,96810.27
2018-12-05T21:32:37.073Z,96806.58
2018-12-05T21:35:08.304Z,96805.31
2018-12-05T21:37:39.137Z,96812.37
2018-12-05T21:40:09.225Z,96807.33
2018-12-05T21:42:40.462Z,96796.55
2018-12-05T21:45:11.208Z,96796.72
2018-12-05T21:47:42.244Z,96798.66
2018-12-05T21:50:12.213Z,96800.52
2018-12-05T21:52:42.297Z,96803.70
2018-12-05T21:55:14.281Z,96799.08
2018-12-05T21:57:46.629Z,96799.17
2018-12-05T22:00:17.170Z,96801.77
2018-12-05T22:02:48.209Z,96796.52
2018-12-05T22:05:19.160Z,96792.87
2018-12-05T22:07:48.508Z,96794.84
2018-12-05T22:10:19.417Z,96791.09
2018-12-05T22:12:50.343Z,96783.13
2018-12-05T22:15:22.306Z,96789.20
2018-12-05T22:17:52.838Z,96779.45
2018-12-05T22:20:23.384Z,96778.19
2018-12-05T22:22:54.513Z,96776.09
2018-12-05T22:25:25.445Z,96776.52
2018-12-05T22:33:55.406Z,96766.28
2018-12-05T22:36:30.027Z,96756.09
2018-12-05T22:39:06.960Z,96759.42
2018-12-05T22:41:36.369Z,96748.59
2018-12-05T22:44:07.367Z,96740.24
2018-12-05T22:46:36.712Z,96735.66
2018-12-05T22:49:07.543Z,96740.56
2018-12-05T22:51:40.208Z,96732.90
2018-12-05T22:54:11.509Z,96720.75
2018-12-05T22:56:49.101Z,96719.78
2018-12-05T22:59:18.990Z,96704.91
2018-12-05T23:01:50.427Z,96701.08
2018-12-05T23:04:24.657Z,96696.04
2018-12-05T23:06:56.569Z,96693.47
2018-12-05T23:09:27.889Z,96691.30
2018-12-05T23:11:58.485Z,96692.89
2018-12-05T23:14:29.756Z,96688.78
2018-12-05T23:16:59.579Z,96686.79
2018-12-05T23:19:30.617Z,96683.64
2018-12-05T23:22:05.528Z,96677.97
2018-12-05T23:24:36.580Z,96674.23
2018-12-05T23:27:09.697Z,96666.35
2018-12-05T23:29:40.980Z,96649.17
2018-12-05T23:32:10.663Z,96650.08
2018-12-05T23:34:42.822Z,96644.66
2018-12-05T23:37:14.833Z,96637.92
2018-12-05T23:39:45.572Z,96640.83
2018-12-05T23:42:19.580Z,96640.45
2018-12-05T23:44:52.689Z,96631.63
2018-12-05T23:47:26.616Z,96633.64
2018-12-05T23:49:56.776Z,96628.52
2018-12-05T23:52:26.776Z,96622.17
2018-12-05T23:54:56.344Z,96621.69
2018-12-05T23:57:27.821Z,96618.61
2018-12-05T23:59:58.767Z,96608.09
